sensor_id;sensor_type;location;lat;lon;timestamp;temperature;humidity
38084;DHT22;23894;51.466;7.444;2023-02-28T00:01:19;0.60;99.90
38084;DHT22;23894;51.466;7.444;2023-02-28T00:03:21;0.60;99.90
38084;DHT22;23894;51.466;7.444;2023-02-28T00:05:24;0.50;99.90
38084;DHT22;23894;51.466;7.444;2023-02-28T00:07:27;0.60;99.90
38084;DHT22;23894;51.466;7.444;2023-02-28T00:09:30;0.60;99.90
38084;DHT22;23894;51.466;7.444;2023-02-28T00:11:31;0.60;99.90
38084;DHT22;23894;51.466;7.444;2023-02-28T00:13:35;0.50;99.90
38084;DHT22;23894;51.466;7.444;2023-02-28T00:15:39;0.50;99.90
38084;DHT22;23894;51.466;7.444;2023-02-28T00:17:41;0.50;99.90
38084;DHT22;23894;51.466;7.444;2023-02-28T00:19:43;0.50;99.90
38084;DHT22;23894;51.466;7.444;2023-02-28T00:21:45;0.50;99.90
38084;DHT22;23894;51.466;7.444;2023-02-28T00:23:57;0.50;99.90
38084;DHT22;23894;51.466;7.444;2023-02-28T00:26:00;0.40;99.90
38084;DHT22;23894;51.466;7.444;2023-02-28T00:28:02;0.40;99.90
38084;DHT22;23894;51.466;7.444;2023-02-28T00:30:05;0.40;99.90
38084;DHT22;23894;51.466;7.444;2023-02-28T00:32:08;0.40;99.90
38084;DHT22;23894;51.466;7.444;2023-02-28T00:34:09;0.40;99.90
38084;DHT22;23894;51.466;7.444;2023-02-28T00:36:12;0.40;99.90
38084;DHT22;23894;51.466;7.444;2023-02-28T00:38:13;0.30;99.90
38084;DHT22;23894;51.466;7.444;2023-02-28T00:40:15;0.30;99.90
38084;DHT22;23894;51.466;7.444;2023-02-28T00:42:16;0.30;99.90
38084;DHT22;23894;51.466;7.444;2023-02-28T00:44:16;0.30;99.90
38084;DHT22;23894;51.466;7.444;2023-02-28T00:46:19;0.20;99.90
38084;DHT22;23894;51.466;7.444;2023-02-28T00:48:20;0.30;99.90
38084;DHT22;23894;51.466;7.444;2023-02-28T00:50:21;0.20;99.90
38084;DHT22;23894;51.466;7.444;2023-02-28T00:52:24;0.20;99.90
38084;DHT22;23894;51.466;7.444;2023-02-28T00:54:26;0.20;99.90
38084;DHT22;23894;51.466;7.444;2023-02-28T00:56:28;0.20;99.90
38084;DHT22;23894;51.466;7.444;2023-02-28T00:58:31;0.20;99.90
38084;DHT22;23894;51.466;7.444;2023-02-28T01:00:32;0.10;99.90
38084;DHT22;23894;51.466;7.444;2023-02-28T01:02:34;0.10;99.90
38084;DHT22;23894;51.466;7.444;2023-02-28T01:04:35;0.10;99.90
38084;DHT22;23894;51.466;7.444;2023-02-28T01:06:38;0.10;99.90
38084;DHT22;23894;51.466;7.444;2023-02-28T01:08:40;0.00;99.90
38084;DHT22;23894;51.466;7.444;2023-02-28T01:10:43;0.00;99.90
38084;DHT22;23894;51.466;7.444;2023-02-28T01:12:44;0.00;99.90
38084;DHT22;23894;51.466;7.444;2023-02-28T01:14:45;0.00;99.90
38084;DHT22;23894;51.466;7.444;2023-02-28T01:16:47;0.10;99.90
38084;DHT22;23894;51.466;7.444;2023-02-28T01:18:48;0.00;99.90
38084;DHT22;23894;51.466;7.444;2023-02-28T01:20:50;0.00;99.90
38084;DHT22;23894;51.466;7.444;2023-02-28T01:22:54;0.00;99.90
38084;DHT22;23894;51.466;7.444;2023-02-28T01:24:57;0.00;99.90
38084;DHT22;23894;51.466;7.444;2023-02-28T01:26:57;0.00;99.90
38084;DHT22;23894;51.466;7.444;2023-02-28T01:29:00;-0.10;99.90
38084;DHT22;23894;51.466;7.444;2023-02-28T01:31:02;0.00;99.90
38084;DHT22;23894;51.466;7.444;2023-02-28T01:33:03;-0.10;99.90
38084;DHT22;23894;51.466;7.444;2023-02-28T01:35:05;-0.10;99.90
38084;DHT22;23894;51.466;7.444;2023-02-28T01:37:08;-0.10;99.90
38084;DHT22;23894;51.466;7.444;2023-02-28T01:39:08;-0.20;99.90
38084;DHT22;23894;51.466;7.444;2023-02-28T01:41:23;-0.20;99.90
38084;DHT22;23894;51.466;7.444;2023-02-28T01:43:56;-0.30;99.90
38084;DHT22;23894;51.466;7.444;2023-02-28T01:46:05;-0.40;99.90
38084;DHT22;23894;51.466;7.444;2023-02-28T01:48:11;-0.40;99.90
38084;DHT22;23894;51.466;7.444;2023-02-28T01:50:23;-0.40;99.90
38084;DHT22;23894;51.466;7.444;2023-02-28T01:52:27;-0.50;99.90
38084;DHT22;23894;51.466;7.444;2023-02-28T05:36:04;-1.80;99.90
38084;DHT22;23894;51.466;7.444;2023-02-28T05:38:06;-1.80;99.90
38084;DHT22;23894;51.466;7.444;2023-02-28T05:40:08;-1.80;99.90
38084;DHT22;23894;51.466;7.444;2023-02-28T05:42:14;-1.80;99.90
38084;DHT22;23894;51.466;7.444;2023-02-28T05:44:16;-1.80;99.90
38084;DHT22;23894;51.466;7.444;2023-02-28T05:46:21;-1.80;99.90
38084;DHT22;23894;51.466;7.444;2023-02-28T05:48:23;-1.80;99.90
38084;DHT22;23894;51.466;7.444;2023-02-28T05:50:26;-1.80;99.90
38084;DHT22;23894;51.466;7.444;2023-02-28T05:52:27;-1.80;99.90
38084;DHT22;23894;51.466;7.444;2023-02-28T05:54:31;-1.80;99.90
38084;DHT22;23894;51.466;7.444;2023-02-28T05:56:31;-1.80;99.90
38084;DHT22;23894;51.466;7.444;2023-02-28T05:58:37;-1.80;99.90
38084;DHT22;23894;51.466;7.444;2023-02-28T06:00:39;-1.80;99.90
38084;DHT22;23894;51.466;7.444;2023-02-28T06:02:40;-1.80;99.90
38084;DHT22;23894;51.466;7.444;2023-02-28T06:04:44;-1.80;99.90
38084;DHT22;23894;51.466;7.444;2023-02-28T06:06:50;-1.90;99.90
38084;DHT22;23894;51.466;7.444;2023-02-28T06:08:52;-1.90;99.90
38084;DHT22;23894;51.466;7.444;2023-02-28T06:10:55;-1.90;99.90
38084;DHT22;23894;51.466;7.444;2023-02-28T06:13:02;-2.00;99.90
38084;DHT22;23894;51.466;7.444;2023-02-28T06:15:14;-2.00;99.90
38084;DHT22;23894;51.466;7.444;2023-02-28T06:17:17;-2.00;99.90
38084;DHT22;23894;51.466;7.444;2023-02-28T06:19:20;-2.00;99.90
38084;DHT22;23894;51.466;7.444;2023-02-28T06:21:24;-2.00;99.90
38084;DHT22;23894;51.466;7.444;2023-02-28T06:23:27;-2.00;99.90
38084;DHT22;23894;51.466;7.444;2023-02-28T06:25:30;-2.10;99.90
38084;DHT22;23894;51.466;7.444;2023-02-28T06:27:32;-2.10;99.90
38084;DHT22;23894;51.466;7.444;2023-02-28T06:29:34;-2.10;99.90
38084;DHT22;23894;51.466;7.444;2023-02-28T06:31:35;-2.10;99.90
38084;DHT22;23894;51.466;7.444;2023-02-28T06:33:37;-2.10;99.90
38084;DHT22;23894;51.466;7.444;2023-02-28T06:35:39;-2.10;99.90
38084;DHT22;23894;51.466;7.444;2023-02-28T06:37:42;-2.10;99.90
38084;DHT22;23894;51.466;7.444;2023-02-28T06:39:45;-2.20;99.90
38084;DHT22;23894;51.466;7.444;2023-02-28T06:41:47;-2.20;99.90
38084;DHT22;23894;51.466;7.444;2023-02-28T06:43:49;-2.20;99.90
38084;DHT22;23894;51.466;7.444;2023-02-28T06:45:57;-2.20;99.90
38084;DHT22;23894;51.466;7.444;2023-02-28T06:47:58;-2.20;99.90
38084;DHT22;23894;51.466;7.444;2023-02-28T06:50:03;-2.10;99.90
38084;DHT22;23894;51.466;7.444;2023-02-28T06:52:04;-2.10;99.90
38084;DHT22;23894;51.466;7.444;2023-02-28T06:54:06;-2.20;99.90
38084;DHT22;23894;51.466;7.444;2023-02-28T06:56:13;-2.10;99.90
38084;DHT22;23894;51.466;7.444;2023-02-28T06:58:14;-2.10;99.90
38084;DHT22;23894;51.466;7.444;2023-02-28T07:00:22;-2.10;99.90
38084;DHT22;23894;51.466;7.444;2023-02-28T07:02:25;-2.10;99.90
38084;DHT22;23894;51.466;7.444;2023-02-28T07:04:27;-2.10;99.90
38084;DHT22;23894;51.466;7.444;2023-02-28T07:06:30;-2.00;99.90
38084;DHT22;23894;51.466;7.444;2023-02-28T07:08:36;-2.00;99.90
38084;DHT22;23894;51.466;7.444;2023-02-28T07:10:41;-1.90;99.90
38084;DHT22;23894;51.466;7.444;2023-02-28T07:12:42;-1.90;99.90
38084;DHT22;23894;51.466;7.444;2023-02-28T07:14:46;-1.90;99.90
38084;DHT22;23894;51.466;7.444;2023-02-28T07:16:48;-1.80;99.90
38084;DHT22;23894;51.466;7.444;2023-02-28T07:19:02;-1.80;99.90
38084;DHT22;23894;51.466;7.444;2023-02-28T07:21:04;-1.70;99.90
38084;DHT22;23894;51.466;7.444;2023-02-28T07:23:08;-1.70;99.90
38084;DHT22;23894;51.466;7.444;2023-02-28T07:25:09;-1.70;99.90
38084;DHT22;23894;51.466;7.444;2023-02-28T07:27:11;-1.60;99.90
38084;DHT22;23894;51.466;7.444;2023-02-28T07:29:13;-1.60;99.90
38084;DHT22;23894;51.466;7.444;2023-02-28T07:31:16;-1.60;99.90
38084;DHT22;23894;51.466;7.444;2023-02-28T07:33:19;-1.60;99.90
38084;DHT22;23894;51.466;7.444;2023-02-28T07:35:21;-1.60;99.90
38084;DHT22;23894;51.466;7.444;2023-02-28T07:37:23;-1.50;99.90
38084;DHT22;23894;51.466;7.444;2023-02-28T07:39:26;-1.50;99.90
38084;DHT22;23894;51.466;7.444;2023-02-28T07:41:29;-1.50;99.90
38084;DHT22;23894;51.466;7.444;2023-02-28T07:43:32;-1.40;99.90
38084;DHT22;23894;51.466;7.444;2023-02-28T07:45:34;-1.30;99.90
38084;DHT22;23894;51.466;7.444;2023-02-28T07:47:35;-1.20;99.90
38084;DHT22;23894;51.466;7.444;2023-02-28T07:49:36;-1.10;99.90
38084;DHT22;23894;51.466;7.444;2023-02-28T07:51:38;-1.10;99.90
38084;DHT22;23894;51.466;7.444;2023-02-28T07:53:39;-1.00;99.90
38084;DHT22;23894;51.466;7.444;2023-02-28T07:55:43;-0.90;99.90
38084;DHT22;23894;51.466;7.444;2023-02-28T07:57:44;-0.80;99.90
38084;DHT22;23894;51.466;7.444;2023-02-28T07:59:48;-0.70;99.90
38084;DHT22;23894;51.466;7.444;2023-02-28T08:01:48;-0.70;99.90
38084;DHT22;23894;51.466;7.444;2023-02-28T08:03:52;-0.50;99.90
38084;DHT22;23894;51.466;7.444;2023-02-28T08:05:58;-0.40;99.90
38084;DHT22;23894;51.466;7.444;2023-02-28T08:08:00;-0.40;99.90
38084;DHT22;23894;51.466;7.444;2023-02-28T08:10:03;-0.30;99.90
38084;DHT22;23894;51.466;7.444;2023-02-28T08:12:13;-0.20;99.90
38084;DHT22;23894;51.466;7.444;2023-02-28T08:14:15;-0.10;99.90
38084;DHT22;23894;51.466;7.444;2023-02-28T08:16:17;-0.10;99.90
38084;DHT22;23894;51.466;7.444;2023-02-28T08:18:23;0.00;99.90
38084;DHT22;23894;51.466;7.444;2023-02-28T08:20:26;0.00;99.90
38084;DHT22;23894;51.466;7.444;2023-02-28T08:22:28;0.10;99.90
38084;DHT22;23894;51.466;7.444;2023-02-28T08:24:30;0.10;99.90
38084;DHT22;23894;51.466;7.444;2023-02-28T08:26:33;0.10;99.90
38084;DHT22;23894;51.466;7.444;2023-02-28T08:28:34;0.20;99.90
38084;DHT22;23894;51.466;7.444;2023-02-28T08:30:38;0.30;99.90
38084;DHT22;23894;51.466;7.444;2023-02-28T08:32:42;0.40;99.90
38084;DHT22;23894;51.466;7.444;2023-02-28T08:34:45;0.60;99.90
38084;DHT22;23894;51.466;7.444;2023-02-28T08:36:47;0.80;99.90
38084;DHT22;23894;51.466;7.444;2023-02-28T08:38:50;0.90;99.90
38084;DHT22;23894;51.466;7.444;2023-02-28T08:41:04;1.00;99.90
38084;DHT22;23894;51.466;7.444;2023-02-28T08:43:11;1.10;99.90
38084;DHT22;23894;51.466;7.444;2023-02-28T08:45:15;1.20;99.90
38084;DHT22;23894;51.466;7.444;2023-02-28T08:47:17;1.30;99.90
38084;DHT22;23894;51.466;7.444;2023-02-28T08:49:19;1.40;99.90
38084;DHT22;23894;51.466;7.444;2023-02-28T08:51:22;1.70;99.90
38084;DHT22;23894;51.466;7.444;2023-02-28T08:53:27;1.80;99.90
38084;DHT22;23894;51.466;7.444;2023-02-28T08:55:29;2.10;99.90
38084;DHT22;23894;51.466;7.444;2023-02-28T08:57:33;2.20;99.90
38084;DHT22;23894;51.466;7.444;2023-02-28T08:59:35;2.30;99.90
38084;DHT22;23894;51.466;7.444;2023-02-28T09:01:37;2.40;99.90
38084;DHT22;23894;51.466;7.444;2023-02-28T09:03:40;2.50;99.90
38084;DHT22;23894;51.466;7.444;2023-02-28T09:06:00;2.60;99.90
38084;DHT22;23894;51.466;7.444;2023-02-28T09:08:00;2.80;99.90
38084;DHT22;23894;51.466;7.444;2023-02-28T09:10:05;3.00;99.90
38084;DHT22;23894;51.466;7.444;2023-02-28T09:12:34;3.10;99.90
38084;DHT22;23894;51.466;7.444;2023-02-28T09:14:37;3.20;99.90
38084;DHT22;23894;51.466;7.444;2023-02-28T09:16:40;3.30;99.90
38084;DHT22;23894;51.466;7.444;2023-02-28T09:18:46;3.50;99.90
38084;DHT22;23894;51.466;7.444;2023-02-28T09:20:49;3.60;99.90
38084;DHT22;23894;51.466;7.444;2023-02-28T09:22:52;3.60;99.90
38084;DHT22;23894;51.466;7.444;2023-02-28T09:24:54;3.60;99.90
38084;DHT22;23894;51.466;7.444;2023-02-28T09:26:57;3.50;99.90
38084;DHT22;23894;51.466;7.444;2023-02-28T09:29:00;3.40;99.90
38084;DHT22;23894;51.466;7.444;2023-02-28T09:31:05;3.30;99.90
38084;DHT22;23894;51.466;7.444;2023-02-28T09:33:07;3.30;99.90
38084;DHT22;23894;51.466;7.444;2023-02-28T09:35:13;3.30;99.90
38084;DHT22;23894;51.466;7.444;2023-02-28T09:37:19;3.40;99.90
38084;DHT22;23894;51.466;7.444;2023-02-28T09:39:21;3.60;99.90
38084;DHT22;23894;51.466;7.444;2023-02-28T09:41:29;3.80;99.90
38084;DHT22;23894;51.466;7.444;2023-02-28T09:43:40;3.90;99.90
38084;DHT22;23894;51.466;7.444;2023-02-28T09:48:29;3.90;99.90
38084;DHT22;23894;51.466;7.444;2023-02-28T09:50:51;3.90;99.90
38084;DHT22;23894;51.466;7.444;2023-02-28T09:52:54;3.90;99.90
38084;DHT22;23894;51.466;7.444;2023-02-28T09:57:37;4.00;99.90
38084;DHT22;23894;51.466;7.444;2023-02-28T10:02:11;4.00;99.90
38084;DHT22;23894;51.466;7.444;2023-02-28T10:04:42;4.10;99.90
38084;DHT22;23894;51.466;7.444;2023-02-28T10:06:50;4.20;99.90
38084;DHT22;23894;51.466;7.444;2023-02-28T10:09:19;4.30;99.90
38084;DHT22;23894;51.466;7.444;2023-02-28T10:11:22;4.40;99.90
38084;DHT22;23894;51.466;7.444;2023-02-28T10:13:39;4.60;99.90
38084;DHT22;23894;51.466;7.444;2023-02-28T10:15:44;4.90;99.90
38084;DHT22;23894;51.466;7.444;2023-02-28T10:17:51;5.00;99.90
38084;DHT22;23894;51.466;7.444;2023-02-28T10:20:20;5.00;99.90
38084;DHT22;23894;51.466;7.444;2023-02-28T10:22:42;5.00;99.90
38084;DHT22;23894;51.466;7.444;2023-02-28T10:24:51;5.00;99.90
38084;DHT22;23894;51.466;7.444;2023-02-28T10:27:00;5.10;99.90
38084;DHT22;23894;51.466;7.444;2023-02-28T10:29:03;5.20;99.90
38084;DHT22;23894;51.466;7.444;2023-02-28T10:31:26;5.20;99.90
38084;DHT22;23894;51.466;7.444;2023-02-28T10:33:34;5.30;99.90
38084;DHT22;23894;51.466;7.444;2023-02-28T10:35:35;5.40;99.90
38084;DHT22;23894;51.466;7.444;2023-02-28T10:37:43;5.40;99.90
38084;DHT22;23894;51.466;7.444;2023-02-28T10:39:46;5.50;99.90
38084;DHT22;23894;51.466;7.444;2023-02-28T10:41:48;5.60;99.90
38084;DHT22;23894;51.466;7.444;2023-02-28T10:43:50;5.70;99.90
38084;DHT22;23894;51.466;7.444;2023-02-28T10:50:51;5.90;99.90
38084;DHT22;23894;51.466;7.444;2023-02-28T10:52:54;6.00;99.90
38084;DHT22;23894;51.466;7.444;2023-02-28T10:55:16;6.10;99.90
38084;DHT22;23894;51.466;7.444;2023-02-28T10:57:23;6.30;99.90
38084;DHT22;23894;51.466;7.444;2023-02-28T10:59:31;6.40;99.90
38084;DHT22;23894;51.466;7.444;2023-02-28T11:01:40;6.50;99.90
38084;DHT22;23894;51.466;7.444;2023-02-28T11:03:42;6.70;99.90
38084;DHT22;23894;51.466;7.444;2023-02-28T11:05:44;6.60;99.90
38084;DHT22;23894;51.466;7.444;2023-02-28T11:08:34;6.60;99.90
38084;DHT22;23894;51.466;7.444;2023-02-28T11:10:20;6.40;99.90
38084;DHT22;23894;51.466;7.444;2023-02-28T11:14:28;6.30;99.90
38084;DHT22;23894;51.466;7.444;2023-02-28T11:16:37;6.20;99.90
38084;DHT22;23894;51.466;7.444;2023-02-28T11:18:57;6.30;99.90
38084;DHT22;23894;51.466;7.444;2023-02-28T11:20:59;6.30;99.90
38084;DHT22;23894;51.466;7.444;2023-02-28T11:23:03;6.30;99.90
38084;DHT22;23894;51.466;7.444;2023-02-28T11:25:20;6.40;99.90
38084;DHT22;23894;51.466;7.444;2023-02-28T11:27:45;6.50;99.90
38084;DHT22;23894;51.466;7.444;2023-02-28T11:29:54;6.60;99.90
38084;DHT22;23894;51.466;7.444;2023-02-28T11:32:20;6.70;99.90
38084;DHT22;23894;51.466;7.444;2023-02-28T11:34:25;6.70;99.90
38084;DHT22;23894;51.466;7.444;2023-02-28T11:36:34;6.80;99.90
38084;DHT22;23894;51.466;7.444;2023-02-28T11:38:36;6.80;99.90
38084;DHT22;23894;51.466;7.444;2023-02-28T11:40:51;6.90;99.90
38084;DHT22;23894;51.466;7.444;2023-02-28T20:16:03;1.70;99.90
38084;DHT22;23894;51.466;7.444;2023-02-28T20:18:09;1.60;99.90
38084;DHT22;23894;51.466;7.444;2023-02-28T20:20:10;1.70;99.90
38084;DHT22;23894;51.466;7.444;2023-02-28T20:22:12;1.60;99.90
38084;DHT22;23894;51.466;7.444;2023-02-28T20:24:13;1.50;99.90
38084;DHT22;23894;51.466;7.444;2023-02-28T20:26:14;1.50;99.90
38084;DHT22;23894;51.466;7.444;2023-02-28T20:28:22;1.40;99.90
38084;DHT22;23894;51.466;7.444;2023-02-28T20:30:24;1.40;99.90
38084;DHT22;23894;51.466;7.444;2023-02-28T20:32:25;1.40;99.90
38084;DHT22;23894;51.466;7.444;2023-02-28T20:34:25;1.40;99.90
38084;DHT22;23894;51.466;7.444;2023-02-28T20:36:28;1.30;99.90
38084;DHT22;23894;51.466;7.444;2023-02-28T20:38:32;1.40;99.90
38084;DHT22;23894;51.466;7.444;2023-02-28T20:40:34;1.30;99.90
38084;DHT22;23894;51.466;7.444;2023-02-28T20:42:36;1.30;99.90
38084;DHT22;23894;51.466;7.444;2023-02-28T20:44:37;1.30;99.90
38084;DHT22;23894;51.466;7.444;2023-02-28T20:46:41;1.30;99.90
38084;DHT22;23894;51.466;7.444;2023-02-28T20:48:44;1.20;99.90
38084;DHT22;23894;51.466;7.444;2023-02-28T20:50:50;1.20;99.90
38084;DHT22;23894;51.466;7.444;2023-02-28T20:52:50;1.10;99.90
38084;DHT22;23894;51.466;7.444;2023-02-28T20:54:51;1.10;99.90
38084;DHT22;23894;51.466;7.444;2023-02-28T20:56:56;1.10;99.90
38084;DHT22;23894;51.466;7.444;2023-02-28T20:58:58;1.10;99.90
38084;DHT22;23894;51.466;7.444;2023-02-28T21:01:08;1.00;99.90
38084;DHT22;23894;51.466;7.444;2023-02-28T21:03:16;1.00;99.90
38084;DHT22;23894;51.466;7.444;2023-02-28T21:05:22;0.90;99.90
38084;DHT22;23894;51.466;7.444;2023-02-28T21:07:28;0.90;99.90
38084;DHT22;23894;51.466;7.444;2023-02-28T21:09:31;0.90;99.90
38084;DHT22;23894;51.466;7.444;2023-02-28T21:11:36;0.90;99.90
38084;DHT22;23894;51.466;7.444;2023-02-28T21:13:39;0.90;99.90
38084;DHT22;23894;51.466;7.444;2023-02-28T21:15:41;0.90;99.90
38084;DHT22;23894;51.466;7.444;2023-02-28T21:17:43;0.90;99.90
38084;DHT22;23894;51.466;7.444;2023-02-28T21:19:48;0.90;99.90
38084;DHT22;23894;51.466;7.444;2023-02-28T21:21:53;0.90;99.90
38084;DHT22;23894;51.466;7.444;2023-02-28T21:24:02;0.80;99.90
38084;DHT22;23894;51.466;7.444;2023-02-28T21:26:08;0.80;99.90
38084;DHT22;23894;51.466;7.444;2023-02-28T21:28:09;0.80;99.90
38084;DHT22;23894;51.466;7.444;2023-02-28T21:30:10;0.80;99.90
38084;DHT22;23894;51.466;7.444;2023-02-28T21:32:13;0.70;99.90
38084;DHT22;23894;51.466;7.444;2023-02-28T21:34:18;0.70;99.90
38084;DHT22;23894;51.466;7.444;2023-02-28T21:36:22;0.70;99.90
38084;DHT22;23894;51.466;7.444;2023-02-28T21:38:25;0.70;99.90
38084;DHT22;23894;51.466;7.444;2023-02-28T21:40:28;0.70;99.90
38084;DHT22;23894;51.466;7.444;2023-02-28T21:42:33;0.70;99.90
38084;DHT22;23894;51.466;7.444;2023-02-28T21:44:35;0.60;99.90
38084;DHT22;23894;51.466;7.444;2023-02-28T21:46:36;0.60;99.90
38084;DHT22;23894;51.466;7.444;2023-02-28T21:48:39;0.60;99.90
38084;DHT22;23894;51.466;7.444;2023-02-28T21:50:40;0.60;99.90
38084;DHT22;23894;51.466;7.444;2023-02-28T21:52:43;0.50;99.90
38084;DHT22;23894;51.466;7.444;2023-02-28T21:54:46;0.60;99.90
38084;DHT22;23894;51.466;7.444;2023-02-28T21:56:51;0.50;99.90
38084;DHT22;23894;51.466;7.444;2023-02-28T21:58:54;0.50;99.90
38084;DHT22;23894;51.466;7.444;2023-02-28T22:01:18;0.50;99.90
38084;DHT22;23894;51.466;7.444;2023-02-28T22:03:21;0.40;99.90
38084;DHT22;23894;51.466;7.444;2023-02-28T22:05:24;0.40;99.90
38084;DHT22;23894;51.466;7.444;2023-02-28T22:07:25;0.40;99.90
38084;DHT22;23894;51.466;7.444;2023-02-28T22:09:27;0.30;99.90
38084;DHT22;23894;51.466;7.444;2023-02-28T22:11:28;0.30;99.90
38084;DHT22;23894;51.466;7.444;2023-02-28T22:13:31;0.30;99.90
38084;DHT22;23894;51.466;7.444;2023-02-28T22:15:40;0.20;99.90
38084;DHT22;23894;51.466;7.444;2023-02-28T22:17:40;0.20;99.90
38084;DHT22;23894;51.466;7.444;2023-02-28T22:19:41;0.20;99.90
38084;DHT22;23894;51.466;7.444;2023-02-28T22:21:45;0.20;99.90
38084;DHT22;23894;51.466;7.444;2023-02-28T22:23:49;0.20;99.90
38084;DHT22;23894;51.466;7.444;2023-02-28T22:25:51;0.20;99.90
38084;DHT22;23894;51.466;7.444;2023-02-28T22:27:57;0.20;99.90
38084;DHT22;23894;51.466;7.444;2023-02-28T22:29:58;0.20;99.90
38084;DHT22;23894;51.466;7.444;2023-02-28T22:32:01;0.20;99.90
38084;DHT22;23894;51.466;7.444;2023-02-28T22:34:09;0.10;99.90
38084;DHT22;23894;51.466;7.444;2023-02-28T22:36:14;0.10;99.90
38084;DHT22;23894;51.466;7.444;2023-02-28T22:38:17;0.10;99.90
38084;DHT22;23894;51.466;7.444;2023-02-28T22:40:20;0.00;99.90
38084;DHT22;23894;51.466;7.444;2023-02-28T22:42:21;0.00;99.90
38084;DHT22;23894;51.466;7.444;2023-02-28T22:44:24;0.00;99.90
38084;DHT22;23894;51.466;7.444;2023-02-28T22:46:27;0.00;99.90
38084;DHT22;23894;51.466;7.444;2023-02-28T22:48:29;-0.10;99.90
38084;DHT22;23894;51.466;7.444;2023-02-28T22:50:30;-0.10;99.90
38084;DHT22;23894;51.466;7.444;2023-02-28T22:52:33;-0.10;99.90
38084;DHT22;23894;51.466;7.444;2023-02-28T22:54:34;-0.10;99.90
38084;DHT22;23894;51.466;7.444;2023-02-28T22:56:35;-0.10;99.90
38084;DHT22;23894;51.466;7.444;2023-02-28T22:58:36;-0.10;99.90
38084;DHT22;23894;51.466;7.444;2023-02-28T23:03:24;-0.20;99.90
38084;DHT22;23894;51.466;7.444;2023-02-28T23:05:25;-0.30;99.90
38084;DHT22;23894;51.466;7.444;2023-02-28T23:07:28;-0.30;99.90
38084;DHT22;23894;51.466;7.444;2023-02-28T23:09:32;-0.40;99.90
38084;DHT22;23894;51.466;7.444;2023-02-28T23:11:42;-0.30;99.90
38084;DHT22;23894;51.466;7.444;2023-02-28T23:13:44;-0.40;99.90
38084;DHT22;23894;51.466;7.444;2023-02-28T23:15:58;-0.40;99.90
38084;DHT22;23894;51.466;7.444;2023-02-28T23:17:59;-0.40;99.90
38084;DHT22;23894;51.466;7.444;2023-02-28T23:20:01;-0.40;99.90
38084;DHT22;23894;51.466;7.444;2023-02-28T23:22:03;-0.40;99.90
38084;DHT22;23894;51.466;7.444;2023-02-28T23:24:07;-0.50;99.90
38084;DHT22;23894;51.466;7.444;2023-02-28T23:26:12;-0.50;99.90
38084;DHT22;23894;51.466;7.444;2023-02-28T23:28:15;-0.50;99.90
38084;DHT22;23894;51.466;7.444;2023-02-28T23:30:17;-0.50;99.90
38084;DHT22;23894;51.466;7.444;2023-02-28T23:32:21;-0.50;99.90
38084;DHT22;23894;51.466;7.444;2023-02-28T23:34:23;-0.50;99.90
38084;DHT22;23894;51.466;7.444;2023-02-28T23:36:29;-0.50;99.90
38084;DHT22;23894;51.466;7.444;2023-02-28T23:38:31;-0.60;99.90
38084;DHT22;23894;51.466;7.444;2023-02-28T23:40:32;-0.60;99.90
38084;DHT22;23894;51.466;7.444;2023-02-28T23:42:34;-0.60;99.90
38084;DHT22;23894;51.466;7.444;2023-02-28T23:44:37;-0.50;99.90
38084;DHT22;23894;51.466;7.444;2023-02-28T23:46:39;-0.50;99.90
38084;DHT22;23894;51.466;7.444;2023-02-28T23:48:43;-0.50;99.90
38084;DHT22;23894;51.466;7.444;2023-02-28T23:50:45;-0.60;99.90
38084;DHT22;23894;51.466;7.444;2023-02-28T23:52:47;-0.60;99.90
38084;DHT22;23894;51.466;7.444;2023-02-28T23:54:49;-0.60;99.90
38084;DHT22;23894;51.466;7.444;2023-02-28T23:56:50;-0.60;99.90
38084;DHT22;23894;51.466;7.444;2023-02-28T23:58:53;-0.60;99.90
